Terminal Aerodrome Forecast
Issued by NWS Nashville, TN

Current Version | Previous Version | Text Only | Print | Product List | Glossary On
Versions: 1 2 3 4 5 6 7 8 9 10 11 12 13 14 15 16 17 18 19 20 21 22 23 24 25 26
000
FTUS44 KOHX 281100
TAFCSV
TAF
KCSV 281125Z 2812/2912 28006KT 4SM BR SCT002
      TEMPO 2812/2813 1SM BR BKN002
     FM281400 31010G16KT P6SM FEW005 SCT040=

USA.gov is the U.S. government's official web portal to all federal, state and local government web resources and services.